createdAt,value
2022-08-17T00:00:01.394Z,41.15
2022-08-17T00:02:29.051Z,15.07
2022-08-17T00:04:58.479Z,13.57
2022-08-17T00:07:25.560Z,13.70
2022-08-17T00:09:52.839Z,13.80
2022-08-17T00:12:42.111Z,13.50
2022-08-17T00:15:12.172Z,12.85
2022-08-17T00:17:42.194Z,12.63
2022-08-17T00:20:12.155Z,11.68
2022-08-17T00:22:39.260Z,12.07
2022-08-17T00:25:13.088Z,12.18
2022-08-17T00:27:40.230Z,14.45
2022-08-17T00:30:11.291Z,13.25
2022-08-17T00:33:15.572Z,12.77
2022-08-17T00:35:35.056Z,25.13
2022-08-17T00:38:05.107Z,21.17
2022-08-17T00:40:40.726Z,20.20
2022-08-17T00:43:30.146Z,15.20
2022-08-17T00:45:58.008Z,12.77
2022-08-17T00:48:30.475Z,12.27
2022-08-17T00:51:27.088Z,12.68
2022-08-17T00:54:00.185Z,13.25
2022-08-17T00:56:36.380Z,12.85
2022-08-17T00:59:09.065Z,13.40
2022-08-17T01:01:37.282Z,15.77
2022-08-17T01:06:34.066Z,15.82
2022-08-17T01:09:02.230Z,14.25
2022-08-17T01:11:32.301Z,15.98
2022-08-17T01:13:59.756Z,14.32
2022-08-17T01:16:29.528Z,14.05
2022-08-17T01:19:07.954Z,14.63
2022-08-17T01:21:58.457Z,14.77
2022-08-17T01:24:37.173Z,16.00
2022-08-17T01:27:10.326Z,13.70
2022-08-17T01:29:41.269Z,15.63
2022-08-17T01:32:08.969Z,14.18
2022-08-17T01:34:43.691Z,13.68
2022-08-17T01:39:52.671Z,14.55
2022-08-17T01:42:37.104Z,15.07
2022-08-17T01:45:12.885Z,16.48
2022-08-17T01:47:42.126Z,17.90
2022-08-17T01:50:17.332Z,16.85
2022-08-17T01:52:49.453Z,17.02
2022-08-17T01:55:24.570Z,17.90
2022-08-17T01:57:54.814Z,17.55
2022-08-17T02:00:22.106Z,17.83
2022-08-17T02:02:49.260Z,15.40
2022-08-17T02:05:18.864Z,15.02
2022-08-17T02:07:59.500Z,17.15
2022-08-17T02:10:34.028Z,19.88
2022-08-17T02:13:03.655Z,18.38
2022-08-17T02:15:32.112Z,16.98
2022-08-17T02:17:59.686Z,16.48
2022-08-17T02:20:41.951Z,16.02
2022-08-17T02:23:12.966Z,15.27
2022-08-17T02:25:43.508Z,16.17
2022-08-17T02:28:14.775Z,15.05
2022-08-17T02:31:01.332Z,15.38
2022-08-17T02:33:42.611Z,15.45
2022-08-17T02:36:12.774Z,15.32
2022-08-17T02:38:41.210Z,17.23
2022-08-17T02:41:09.373Z,13.90
2022-08-17T02:43:36.869Z,14.73
2022-08-17T02:46:04.250Z,15.32
2022-08-17T02:48:32.032Z,15.13
2022-08-17T02:51:01.244Z,15.18
2022-08-17T02:53:29.762Z,16.05
2022-08-17T02:56:06.539Z,16.20
2022-08-17T02:58:34.975Z,16.52
2022-08-17T03:01:06.497Z,16.10
2022-08-17T03:03:34.298Z,15.10
2022-08-17T03:06:03.917Z,14.73
2022-08-17T03:08:31.009Z,22.02
2022-08-17T03:10:58.253Z,17.60
2022-08-17T03:13:27.538Z,16.30
2022-08-17T03:15:54.599Z,15.75
2022-08-17T03:18:26.072Z,16.02
2022-08-17T03:20:56.119Z,16.63
2022-08-17T03:23:25.451Z,16.98
2022-08-17T03:25:54.627Z,17.48
2022-08-17T03:28:22.964Z,17.33
2022-08-17T03:30:51.368Z,16.83
2022-08-17T03:33:20.645Z,16.80
2022-08-17T03:35:50.109Z,19.88
2022-08-17T03:38:18.005Z,18.45
2022-08-17T03:40:57.713Z,16.52
2022-08-17T03:43:31.753Z,16.40
2022-08-17T03:46:34.203Z,16.02
2022-08-17T03:49:26.476Z,15.50
2022-08-17T03:52:14.028Z,15.82
2022-08-17T03:57:27.974Z,16.13
2022-08-17T03:59:55.937Z,16.52
2022-08-17T04:02:30.687Z,17.13
2022-08-17T04:04:58.742Z,16.67
2022-08-17T04:07:29.399Z,15.90
2022-08-17T04:09:58.283Z,15.77
2022-08-17T04:12:31.097Z,15.65
2022-08-17T04:15:01.012Z,17.25
2022-08-17T04:17:34.900Z,17.48
2022-08-17T04:20:02.099Z,16.27
2022-08-17T04:22:32.896Z,17.48
2022-08-17T04:25:04.978Z,16.35
2022-08-17T04:27:35.742Z,17.85
2022-08-17T04:30:07.321Z,17.15
2022-08-17T04:33:04.769Z,17.58
2022-08-17T04:35:44.048Z,17.17
2022-08-17T04:38:15.851Z,16.48
2022-08-17T04:41:02.372Z,16.27
2022-08-17T04:43:33.066Z,17.17
2022-08-17T04:46:03.111Z,16.05
2022-08-17T04:48:43.225Z,17.73
2022-08-17T04:51:17.005Z,17.75
2022-08-17T04:53:53.963Z,17.85
2022-08-17T04:56:23.218Z,18.77
2022-08-17T04:58:53.823Z,18.95
2022-08-17T05:01:36.691Z,17.75
2022-08-17T05:04:33.257Z,18.10
2022-08-17T05:06:55.974Z,17.63
2022-08-17T05:09:23.382Z,17.48
2022-08-17T05:11:51.701Z,19.05
2022-08-17T05:14:21.331Z,18.08
2022-08-17T05:17:00.994Z,17.63
2022-08-17T05:19:30.614Z,16.48
2022-08-17T05:21:57.650Z,17.52
2022-08-17T05:24:38.734Z,16.60
2022-08-17T05:27:10.611Z,16.30
2022-08-17T05:29:46.549Z,19.25
2022-08-17T05:32:38.580Z,17.80
2022-08-17T05:35:02.537Z,17.00
2022-08-17T05:37:29.620Z,18.95
2022-08-17T05:39:56.797Z,19.42
2022-08-17T05:42:24.480Z,18.35
2022-08-17T05:44:51.604Z,18.15
2022-08-17T05:47:19.484Z,18.85
2022-08-17T05:49:49.082Z,18.92
2022-08-17T05:52:23.858Z,17.80
2022-08-17T05:54:54.020Z,23.00
2022-08-17T05:57:56.098Z,19.10
2022-08-17T06:00:30.575Z,19.25
2022-08-17T06:03:37.294Z,18.30
2022-08-17T06:09:22.813Z,17.15
2022-08-17T06:12:05.054Z,15.52
2022-08-17T06:15:05.114Z,16.58
2022-08-17T06:17:34.105Z,17.90
2022-08-17T06:20:14.606Z,18.33
2022-08-17T06:22:52.366Z,18.50
2022-08-17T06:25:36.836Z,17.35
2022-08-17T06:28:13.758Z,17.65
2022-08-17T06:30:59.238Z,17.63
2022-08-17T06:33:36.607Z,16.70
2022-08-17T06:36:16.657Z,18.77
2022-08-17T06:39:10.677Z,19.02
2022-08-17T06:43:02.928Z,16.95
2022-08-17T06:45:10.547Z,18.27
2022-08-17T06:47:48.017Z,19.98
2022-08-17T06:50:40.789Z,17.23
2022-08-17T06:53:30.641Z,14.57
2022-08-17T06:56:10.389Z,13.90
2022-08-17T06:58:48.459Z,15.15
2022-08-17T07:01:25.207Z,16.48
2022-08-17T07:03:55.926Z,15.80
2022-08-17T07:06:28.515Z,14.30
2022-08-17T07:09:03.732Z,13.85
2022-08-17T07:11:34.387Z,15.30
2022-08-17T07:14:37.756Z,15.63
2022-08-17T07:17:15.566Z,15.95
2022-08-17T07:19:46.231Z,15.35
2022-08-17T07:22:55.237Z,13.85
2022-08-17T07:25:38.448Z,13.38
2022-08-17T07:28:07.881Z,14.23
2022-08-17T07:30:57.093Z,12.82
2022-08-17T07:33:28.122Z,11.02
2022-08-17T07:36:01.506Z,13.65
2022-08-17T07:38:54.262Z,11.85
2022-08-17T07:41:23.789Z,12.43
2022-08-17T07:43:56.676Z,11.00
2022-08-17T07:46:46.851Z,12.00
2022-08-17T07:49:13.912Z,11.60
2022-08-17T07:51:53.455Z,12.02
2022-08-17T07:54:27.362Z,10.95
2022-08-17T07:56:56.416Z,11.98
2022-08-17T07:59:28.653Z,14.15
2022-08-17T08:02:06.204Z,12.93
2022-08-17T08:05:08.904Z,12.50
2022-08-17T08:07:51.267Z,12.15
2022-08-17T08:10:36.680Z,11.55
2022-08-17T08:13:25.501Z,13.18
2022-08-17T08:15:57.028Z,13.68
2022-08-17T08:18:53.997Z,8.48
2022-08-17T08:22:06.971Z,10.25
2022-08-17T08:24:48.587Z,8.70
2022-08-17T08:27:30.935Z,9.38
2022-08-17T08:30:22.164Z,9.63
2022-08-17T08:33:12.416Z,9.70
2022-08-17T08:37:12.700Z,9.23
2022-08-17T08:42:48.852Z,9.60
2022-08-17T08:45:21.999Z,10.02
2022-08-17T08:48:45.842Z,12.50
2022-08-17T08:51:30.164Z,11.68
2022-08-17T08:54:26.226Z,11.40
2022-08-17T08:57:34.507Z,12.05
2022-08-17T09:00:26.281Z,10.90
2022-08-17T09:03:17.611Z,10.63
2022-08-17T09:06:37.744Z,10.88
2022-08-17T09:09:15.250Z,11.23
2022-08-17T09:12:01.411Z,11.32
2022-08-17T09:14:51.975Z,11.23
2022-08-17T09:17:32.788Z,12.55
2022-08-17T09:20:28.088Z,11.07
2022-08-17T09:23:07.350Z,9.60
2022-08-17T09:25:51.794Z,10.65
2022-08-17T09:28:25.690Z,11.40
2022-08-17T09:31:06.966Z,12.10
2022-08-17T09:33:44.698Z,10.13
2022-08-17T09:36:17.119Z,8.85
2022-08-17T09:42:49.593Z,8.05
2022-08-17T09:45:34.915Z,10.35
2022-08-17T09:48:31.160Z,8.25
2022-08-17T09:51:10.547Z,10.27
2022-08-17T09:53:39.252Z,11.40
2022-08-17T09:56:45.529Z,10.77
2022-08-17T09:59:27.916Z,10.75
2022-08-17T10:02:40.752Z,11.10
2022-08-17T10:08:31.185Z,13.02
2022-08-17T10:11:08.840Z,13.07
2022-08-17T10:13:53.168Z,12.25
2022-08-17T10:16:47.939Z,12.15
2022-08-17T10:19:53.318Z,11.60
2022-08-17T10:23:03.687Z,10.95
2022-08-17T10:25:55.759Z,11.02
2022-08-17T10:28:32.108Z,10.73
2022-08-17T10:31:33.864Z,10.90
2022-08-17T10:34:03.443Z,9.82
2022-08-17T10:36:39.250Z,12.13
2022-08-17T10:39:12.713Z,13.75
2022-08-17T10:41:47.321Z,13.38
2022-08-17T10:44:40.456Z,12.68
2022-08-17T10:47:11.814Z,10.93
2022-08-17T10:49:57.201Z,12.65
2022-08-17T10:52:26.537Z,13.85
2022-08-17T10:54:58.513Z,14.43
2022-08-17T10:57:39.378Z,11.52
2022-08-17T11:00:16.153Z,9.18
2022-08-17T11:02:57.643Z,10.85
2022-08-17T11:05:52.379Z,12.35
2022-08-17T11:08:42.500Z,11.02
2022-08-17T11:11:10.795Z,12.00
2022-08-17T11:14:17.552Z,13.75
2022-08-17T11:16:56.219Z,14.88
2022-08-17T11:19:32.480Z,11.63
2022-08-17T11:22:40.633Z,12.02
2022-08-17T11:25:21.144Z,15.30
2022-08-17T11:27:53.919Z,11.40
2022-08-17T11:30:43.506Z,11.80
2022-08-17T11:33:30.442Z,11.05
2022-08-17T11:36:29.524Z,12.45
2022-08-17T11:39:07.728Z,12.25
2022-08-17T11:42:10.380Z,12.82
2022-08-17T11:45:03.900Z,11.95
2022-08-17T11:48:26.171Z,11.38
2022-08-17T11:51:17.845Z,11.95
2022-08-17T11:53:45.931Z,12.38
2022-08-17T11:56:41.292Z,12.35
2022-08-17T11:59:33.618Z,12.60
2022-08-17T12:02:29.936Z,11.88
2022-08-17T12:05:29.517Z,13.02
2022-08-17T12:08:18.894Z,14.07
2022-08-17T12:10:54.441Z,16.45
2022-08-17T12:13:23.900Z,17.70
2022-08-17T12:15:58.703Z,17.23
2022-08-17T12:18:32.195Z,17.58
2022-08-17T12:21:57.899Z,16.40
2022-08-17T12:24:46.296Z,18.02
2022-08-17T12:27:46.098Z,17.55
2022-08-17T12:30:20.546Z,17.05
2022-08-17T12:32:48.786Z,16.60
2022-08-17T12:35:48.326Z,13.77
2022-08-17T12:38:32.080Z,14.55
2022-08-17T12:41:21.803Z,16.60
2022-08-17T12:44:12.797Z,15.40
2022-08-17T12:46:59.307Z,16.05
2022-08-17T12:49:36.161Z,13.52
2022-08-17T12:52:09.143Z,13.40
2022-08-17T12:54:45.544Z,12.38
2022-08-17T12:57:23.653Z,14.65
2022-08-17T12:59:55.401Z,14.80
2022-08-17T13:02:29.002Z,14.32
2022-08-17T13:04:59.234Z,14.05
2022-08-17T13:07:36.843Z,13.50
2022-08-17T13:10:04.423Z,12.80
2022-08-17T13:12:35.153Z,13.95
2022-08-17T13:15:02.277Z,15.60
2022-08-17T13:17:35.810Z,14.05
2022-08-17T13:20:05.830Z,13.63
2022-08-17T13:22:33.855Z,14.20
2022-08-17T13:25:09.454Z,15.15
2022-08-17T13:27:42.909Z,16.80
2022-08-17T13:30:12.287Z,19.00
2022-08-17T13:32:44.303Z,18.20
2022-08-17T13:35:39.903Z,20.13
2022-08-17T13:38:12.735Z,21.17
2022-08-17T13:40:53.245Z,19.45
2022-08-17T13:43:48.526Z,19.65
2022-08-17T13:46:21.696Z,21.60
2022-08-17T13:49:20.719Z,18.50
2022-08-17T13:51:50.251Z,17.55
2022-08-17T13:54:31.070Z,17.90
2022-08-17T13:57:02.111Z,16.85
2022-08-17T13:59:54.193Z,14.50
2022-08-17T14:02:27.223Z,15.13
2022-08-17T14:04:56.220Z,16.30
2022-08-17T14:07:27.780Z,15.10
2022-08-17T14:10:02.500Z,12.85
2022-08-17T14:12:33.722Z,11.88
2022-08-17T14:15:02.221Z,11.00
2022-08-17T14:17:36.304Z,11.60
2022-08-17T14:20:09.846Z,11.30
2022-08-17T14:22:43.434Z,11.48
2022-08-17T14:25:14.297Z,12.70
2022-08-17T14:27:52.156Z,13.38
2022-08-17T14:30:23.800Z,9.75
2022-08-17T14:32:52.235Z,11.68
2022-08-17T14:37:49.807Z,9.90
2022-08-17T14:40:20.991Z,13.43
2022-08-17T14:42:48.369Z,12.93
2022-08-17T14:45:30.471Z,13.07
2022-08-17T14:48:04.331Z,11.50
2022-08-17T14:50:31.820Z,11.55
2022-08-17T14:52:59.277Z,12.65
2022-08-17T14:55:33.473Z,12.38
2022-08-17T14:58:00.674Z,11.65
2022-08-17T15:00:28.747Z,11.00
2022-08-17T15:02:58.544Z,10.65
2022-08-17T15:05:31.755Z,10.65
2022-08-17T15:08:01.215Z,10.45
2022-08-17T15:10:30.509Z,12.90
2022-08-17T15:12:58.148Z,11.25
2022-08-17T15:15:30.292Z,12.18
2022-08-17T15:17:58.120Z,12.25
2022-08-17T15:20:28.424Z,8.77
2022-08-17T15:23:07.083Z,9.90
2022-08-17T15:25:34.482Z,8.43
2022-08-17T15:28:02.508Z,8.45
2022-08-17T15:30:31.519Z,9.32
2022-08-17T15:32:59.572Z,10.38
2022-08-17T15:35:39.415Z,9.20
2022-08-17T15:38:12.408Z,7.97
2022-08-17T15:40:47.173Z,7.53
2022-08-17T15:43:27.934Z,8.00
2022-08-17T15:48:42.076Z,8.27
2022-08-17T15:51:22.664Z,8.13
2022-08-17T15:53:57.118Z,8.65
2022-08-17T15:56:40.189Z,8.32
2022-08-17T15:59:07.262Z,9.43
2022-08-17T16:04:30.294Z,8.57
2022-08-17T16:06:59.224Z,8.55
2022-08-17T16:09:26.293Z,8.45
2022-08-17T16:11:58.277Z,9.38
2022-08-17T16:14:40.930Z,8.32
2022-08-17T16:17:38.888Z,8.00
2022-08-17T16:19:57.551Z,9.20
2022-08-17T16:22:44.036Z,11.05
2022-08-17T16:25:17.512Z,11.55
2022-08-17T16:27:45.084Z,10.95
2022-08-17T16:30:17.666Z,11.13
2022-08-17T16:32:45.595Z,10.95
2022-08-17T16:35:17.371Z,11.75
2022-08-17T16:37:45.816Z,13.07
2022-08-17T16:40:15.884Z,12.63
2022-08-17T16:42:45.432Z,12.52
2022-08-17T16:45:18.018Z,13.95
2022-08-17T16:47:45.892Z,14.35
2022-08-17T16:53:17.999Z,14.85
2022-08-17T16:55:52.481Z,13.85
2022-08-17T16:58:23.867Z,14.25
2022-08-17T17:00:51.854Z,14.15
2022-08-17T17:03:21.780Z,13.90
2022-08-17T17:06:13.789Z,14.38
2022-08-17T17:08:44.689Z,14.27
2022-08-17T17:11:29.209Z,14.07
2022-08-17T17:14:04.631Z,18.90
2022-08-17T17:16:52.762Z,13.77
2022-08-17T17:19:35.644Z,11.82
2022-08-17T17:22:15.441Z,12.70
2022-08-17T17:25:05.108Z,14.07
2022-08-17T17:28:15.233Z,13.77
2022-08-17T17:31:02.341Z,14.52
2022-08-17T17:33:56.463Z,15.05
2022-08-17T17:36:54.428Z,17.10
2022-08-17T17:39:45.609Z,21.70
2022-08-17T17:42:24.069Z,19.08
2022-08-17T17:45:19.009Z,36.40
2022-08-17T17:47:51.832Z,26.30
2022-08-17T17:50:23.653Z,14.38
2022-08-17T17:53:05.540Z,14.27
2022-08-17T17:58:36.966Z,12.20
2022-08-17T18:01:26.715Z,11.82
2022-08-17T18:04:20.289Z,12.82
2022-08-17T18:10:01.014Z,9.85
2022-08-17T18:13:01.929Z,13.30
2022-08-17T18:15:53.299Z,10.73
2022-08-17T18:18:45.132Z,8.75
2022-08-17T18:21:23.374Z,10.05
2022-08-17T18:24:19.878Z,8.13
2022-08-17T18:27:08.235Z,7.80
2022-08-17T18:29:49.109Z,7.38
2022-08-17T18:32:46.753Z,9.43
2022-08-17T18:35:14.482Z,7.50
2022-08-17T18:37:56.743Z,7.72
2022-08-17T18:40:37.719Z,7.47
2022-08-17T18:43:05.461Z,7.25
2022-08-17T18:45:53.346Z,8.00
2022-08-17T18:49:02.629Z,15.77
2022-08-17T18:51:41.045Z,12.73
2022-08-17T18:54:25.395Z,8.43
2022-08-17T18:57:00.290Z,7.68
2022-08-17T18:59:48.375Z,14.88
2022-08-17T19:02:45.719Z,7.10
2022-08-17T19:05:42.430Z,10.50
2022-08-17T19:08:28.560Z,8.50
2022-08-17T19:11:13.176Z,8.35
2022-08-17T19:13:49.278Z,9.15
2022-08-17T19:16:53.315Z,8.50
2022-08-17T19:19:30.738Z,10.15
2022-08-17T19:22:28.687Z,10.88
2022-08-17T19:25:17.357Z,10.52
2022-08-17T19:28:15.321Z,8.02
2022-08-17T19:30:54.749Z,10.10
2022-08-17T19:33:26.132Z,9.25
2022-08-17T19:36:08.153Z,8.07
2022-08-17T19:39:19.853Z,7.93
2022-08-17T19:41:54.423Z,25.15
2022-08-17T19:44:40.082Z,25.02
2022-08-17T19:47:53.112Z,12.95
2022-08-17T19:50:16.745Z,10.57
2022-08-17T19:53:09.843Z,11.73
2022-08-17T19:55:37.045Z,9.50
2022-08-17T19:58:30.320Z,9.40
2022-08-17T20:00:57.683Z,8.30
2022-08-17T20:03:37.740Z,8.32
2022-08-17T20:06:14.261Z,8.40
2022-08-17T20:09:14.310Z,8.18
2022-08-17T20:11:49.153Z,9.18
2022-08-17T20:14:23.971Z,8.18
2022-08-17T20:16:52.512Z,7.72
2022-08-17T20:19:27.279Z,9.68
2022-08-17T20:22:00.432Z,8.70
2022-08-17T20:24:35.041Z,7.72
2022-08-17T20:27:32.104Z,9.02
2022-08-17T20:30:12.130Z,6.95
2022-08-17T20:32:49.650Z,7.80
2022-08-17T20:35:17.525Z,6.85
2022-08-17T20:37:59.936Z,7.00
2022-08-17T20:40:30.865Z,8.15
2022-08-17T20:43:35.812Z,10.13
2022-08-17T20:46:51.539Z,8.05
2022-08-17T20:49:40.203Z,8.25
2022-08-17T20:52:10.824Z,7.55
2022-08-17T20:55:00.028Z,8.80
2022-08-17T20:57:33.222Z,8.55
2022-08-17T21:00:32.948Z,7.63
2022-08-17T21:03:27.236Z,9.10
2022-08-17T21:06:17.092Z,8.98
2022-08-17T21:08:58.010Z,8.40
2022-08-17T21:11:56.961Z,8.60
2022-08-17T21:14:46.106Z,9.85
2022-08-17T21:17:32.155Z,8.60
2022-08-17T21:20:11.804Z,9.15
2022-08-17T21:23:01.722Z,9.20
2022-08-17T21:26:02.849Z,9.55
2022-08-17T21:29:00.929Z,9.63
2022-08-17T21:31:35.590Z,9.32
2022-08-17T21:34:15.531Z,9.77
2022-08-17T21:36:44.945Z,9.18
2022-08-17T21:39:30.593Z,9.77
2022-08-17T21:42:04.702Z,8.15
2022-08-17T21:44:37.572Z,8.18
2022-08-17T21:47:24.763Z,10.30
2022-08-17T21:49:56.647Z,8.43
2022-08-17T21:52:27.874Z,9.20
2022-08-17T21:55:00.830Z,9.80
2022-08-17T21:57:30.431Z,9.63
2022-08-17T22:00:01.533Z,10.90
2022-08-17T22:02:37.467Z,8.50
2022-08-17T22:05:09.536Z,8.30
2022-08-17T22:07:53.087Z,9.70
2022-08-17T22:10:32.388Z,9.52
2022-08-17T22:13:16.772Z,8.48
2022-08-17T22:15:47.773Z,9.10
2022-08-17T22:18:26.942Z,8.63
2022-08-17T22:21:01.741Z,8.80
2022-08-17T22:23:52.939Z,7.75
2022-08-17T22:26:25.469Z,7.88
2022-08-17T22:28:59.342Z,8.60
2022-08-17T22:31:28.897Z,8.13
2022-08-17T22:34:01.826Z,8.45
2022-08-17T22:36:29.511Z,8.07
2022-08-17T22:39:02.699Z,9.02
2022-08-17T22:41:48.403Z,8.40
2022-08-17T22:44:29.685Z,10.13
2022-08-17T22:47:19.161Z,11.18
2022-08-17T22:49:53.889Z,9.02
2022-08-17T22:52:56.941Z,9.23
2022-08-17T22:55:43.950Z,8.90
2022-08-17T22:58:37.314Z,8.75
2022-08-17T23:01:28.519Z,9.52
2022-08-17T23:04:02.952Z,9.63
2022-08-17T23:06:35.316Z,9.52
2022-08-17T23:09:06.307Z,8.85
2022-08-17T23:11:49.076Z,9.70
2022-08-17T23:14:19.957Z,9.75
2022-08-17T23:16:50.384Z,9.70
2022-08-17T23:19:21.481Z,10.00
2022-08-17T23:21:51.100Z,9.60
2022-08-17T23:24:41.836Z,9.80
2022-08-17T23:27:09.517Z,9.85
2022-08-17T23:29:41.462Z,9.18
2022-08-17T23:32:15.914Z,9.75
2022-08-17T23:34:44.706Z,10.45
2022-08-17T23:37:12.374Z,9.43
2022-08-17T23:39:39.995Z,9.75
2022-08-17T23:42:11.195Z,10.35
2022-08-17T23:44:40.160Z,9.40
2022-08-17T23:47:07.954Z,9.85
2022-08-17T23:49:36.404Z,9.98
2022-08-17T23:52:06.962Z,10.18
2022-08-17T23:54:46.626Z,10.07
2022-08-17T23:57:16.820Z,9.55
2022-08-17T23:59:44.777Z,9.57
